Latest Weather Observations for Paraburdoo

IDW60801

Issued at 11:43 am WST Monday 30 March 2020 (issued every 10 minutes, with the page automatically refreshed every 10 minutes)

About weather observations | Map of weather stations | Latest weather observations for WA | Other Formats
Station Details ID: 007185 Name: PARABURDOO AERO Lat: -23.17 Lon: 117.75 Height: 423.7 m
Data from the previous 72 hours. | See also: Recent months at Paraburdoo
Date/Time
WST
Temp
°C
App
Temp
°C
Dew
Point
°C
Rel
Hum
%
Delta-T
°C
Wind Press
QNH
hPa
Press
MSL
hPa
Rain since
9am
mm
Dir  Spd
km/h
Gust
km/h
Spd
kts
Gust
kts
30/11:30am 35.8 34.0 7.8 18 16.0 ESE 7 11 4 6 1013.4 1010.1 0.0
30/11:00am 35.2 32.7 8.1 19 15.5 SE 11 15 6 8 1014.1 1010.8 0.0
30/10:30am 34.2 31.7 8.0 20 14.9 SSE 11 19 6 10 1014.4 1011.1 0.0
30/10:00am 33.8 31.3 8.4 21 14.5 ENE 11 19 6 10 1014.6 1011.3 0.0
30/09:30am 32.9 30.2 9.0 23 13.7 E 13 19 7 10 1014.8 1011.5 0.0
30/09:00am 32.4 30.0 9.9 25 13.1 NE 13 17 7 9 1014.9 1011.6 0.0
30/08:30am 30.9 29.0 9.2 26 12.4 ENE 9 13 5 7 1014.9 1011.6 0.0
30/08:00am 29.9 27.6 8.9 27 11.9 NE 11 15 6 8 1014.7 1011.4 0.0
30/07:30am 26.9 25.1 9.3 33 9.9 NNE 9 11 5 6 1014.7 1011.4 0.0
30/07:00am 25.5 23.3 9.3 36 9.0 NNE 11 13 6 7 1014.5 1011.2 0.0
30/06:30am 23.2 21.7 8.5 39 8.0 NNE 6 9 3 5 1014.1 1010.8 0.0
30/06:00am 22.6 21.0 8.0 39 7.8 NNE 6 7 3 4 1013.8 1010.5 0.0
30/05:30am 23.6 21.1 8.1 37 8.4 NNE 11 13 6 7 1013.6 1010.3 0.0
30/05:00am 23.5 21.9 8.0 37 8.4 NE 6 7 3 4 1013.0 1009.7 0.0
30/04:30am 23.6 23.2 8.1 37 8.4 CALM 0 4 0 2 1012.7 1009.4 0.0
30/04:00am 24.0 22.4 8.0 36 8.6 NE 6 11 3 6 1012.6 1009.3 0.0
30/03:30am 24.1 22.8 7.7 35 8.8 NE 4 7 2 4 1012.7 1009.4 0.0
30/03:00am 24.5 23.2 7.6 34 9.1 SSE 4 6 2 3 1012.7 1009.4 0.0
30/02:30am 25.3 23.5 7.0 31 9.8 SSE 6 7 3 4 1012.8 1009.5 0.0
30/02:00am 25.6 24.6 7.2 31 9.9 SSE 2 7 1 4 1012.9 1009.6 0.0
30/01:30am 26.3 24.6 7.4 30 10.2 SSE 6 11 3 6 1013.0 1009.7 0.0
30/01:00am 26.5 24.8 7.5 30 10.3 SSE 6 9 3 5 1013.1 1009.8 0.0
30/12:30am 28.4 26.0 7.1 26 11.6 SSE 9 11 5 6 1013.2 1009.9 0.0
30/12:00am 28.7 27.9 6.7 25 11.9 CALM 0 0 0 0 1013.2 1009.9 0.0
 
Date/Time
WST
Temp
°C
App
Temp
°C
Dew
Point
°C
Rel
Hum
%
Delta-T
°C
Wind Press
QNH
hPa
Press
MSL
hPa
Rain since
9am
mm
Dir  Spd
km/h
Gust
km/h
Spd
kts
Gust
kts
29/11:30pm 29.1 28.3 6.5 24 12.2 CALM 0 0 0 0 1013.4 1010.1 0.0
29/11:00pm 29.0 28.2 6.4 24 12.2 CALM 0 0 0 0 1013.7 1010.4 0.0
29/10:30pm 30.9 28.4 6.7 22 13.3 SSE 9 13 5 7 1013.9 1010.6 0.0
29/10:00pm 31.3 28.8 6.4 21 13.6 SSE 9 13 5 7 1014.0 1010.7 0.0
29/09:30pm 32.3 29.6 5.7 19 14.5 S 9 13 5 7 1014.0 1010.7 0.0
29/09:00pm 33.0 29.5 5.5 18 14.9 S 13 17 7 9 1014.0 1010.7 0.0
29/08:30pm 33.4 29.0 5.0 17 15.3 S 17 24 9 13 1013.9 1010.6 0.0
29/08:00pm 33.5 29.2 5.1 17 15.4 S 17 22 9 12 1013.4 1010.1 0.0
29/07:30pm 33.8 29.2 5.4 17 15.5 S 19 28 10 15 1013.0 1009.7 0.0
29/07:00pm 34.4 29.8 5.8 17 15.7 S 19 28 10 15 1012.6 1009.3 0.0
29/06:30pm 34.9 31.2 6.2 17 15.9 S 15 24 8 13 1012.3 1009.0 0.0
29/06:00pm 35.4 30.8 5.8 16 16.4 S 19 28 10 15 1012.1 1008.8 0.0
29/05:30pm 36.1 31.5 5.4 15 16.9 SSE 19 28 10 15 1011.8 1008.5 0.0
29/05:00pm 36.7 31.9 4.9 14 17.5 S 19 30 10 16 1011.8 1008.5 0.0
29/04:30pm 36.8 31.3 3.9 13 17.8 S 22 32 12 17 1011.8 1008.5 0.0
29/04:00pm 37.1 31.2 4.1 13 17.9 S 24 35 13 19 1011.7 1008.4 0.0
29/03:30pm 37.3 31.5 4.3 13 18.0 SSW 24 33 13 18 1011.7 1008.4 0.0
29/03:00pm 36.9 31.8 4.0 13 17.8 S 20 32 11 17 1011.8 1008.5 0.0
29/02:30pm 37.6 33.2 4.5 13 18.1 SSW 17 28 9 15 1011.9 1008.6 0.0
29/02:00pm 38.0 33.2 4.8 13 18.3 SSW 19 30 10 16 1012.1 1008.8 0.0
29/01:30pm 38.4 34.4 5.1 13 18.5 S 15 20 8 11 1012.2 1008.9 0.0
29/01:00pm 37.0 31.9 4.0 13 17.9 S 20 33 11 18 1012.5 1009.2 0.0
29/12:30pm 36.9 32.7 4.0 13 17.8 S 15 30 8 16 1012.7 1009.4 0.0
29/12:00pm 36.9 33.5 6.0 15 17.3 SSE 13 20 7 11 1013.1 1009.8 0.0
29/11:30am 36.5 33.4 5.7 15 17.1 SE 11 24 6 13 1013.3 1010.0 0.0
29/11:00am 35.1 32.6 6.4 17 16.0 ESE 9 15 5 8 1013.8 1010.5 0.0
29/10:30am 34.7 31.9 6.9 18 15.6 E 11 19 6 10 1014.3 1011.0 0.0
29/10:00am 33.9 31.1 7.0 19 15.0 NE 11 19 6 10 1014.5 1011.2 0.0
29/09:30am 33.1 30.0 7.1 20 14.5 NE 13 17 7 9 1014.6 1011.3 0.0
29/09:00am 32.1 29.1 7.7 22 13.7 E 13 17 7 9 1014.7 1011.4 0.0
29/08:30am 30.6 27.6 7.7 24 12.7 ESE 13 17 7 9 1014.7 1011.4 0.0
29/08:00am 29.8 27.9 7.7 25 12.2 S 7 9 4 5 1014.6 1011.3 0.0
29/07:30am 28.1 26.4 8.4 29 10.9 S 7 9 4 5 1014.4 1011.1 0.0
29/07:00am 25.5 23.9 8.9 35 9.2 S 7 9 4 5 1014.5 1011.2 0.0
29/06:30am 24.4 22.8 8.0 35 8.9 S 6 9 3 5 1014.3 1011.0 0.0
29/06:00am 25.6 23.7 7.7 32 9.7 S 7 9 4 5 1014.1 1010.8 0.0
29/05:30am 26.7 25.0 7.7 30 10.4 S 6 9 3 5 1013.9 1010.6 0.0
29/05:00am 27.0 24.0 7.5 29 10.6 S 13 19 7 10 1013.7 1010.4 0.0
29/04:30am 27.7 24.3 7.5 28 11.0 S 15 17 8 9 1013.4 1010.1 0.0
29/04:00am 27.8 25.2 7.6 28 11.1 S 11 11 6 6 1013.2 1009.9 0.0
29/03:30am 28.0 25.9 8.3 29 10.9 S 9 13 5 7 1013.2 1009.9 0.0
29/03:00am 28.8 25.8 7.9 27 11.6 S 13 15 7 8 1013.3 1010.0 0.0
29/02:30am 29.6 27.5 8.1 26 12.0 S 9 13 5 7 1013.4 1010.1 0.0
29/02:00am 30.0 27.8 7.8 25 12.3 S 9 13 5 7 1013.7 1010.4 0.0
29/01:30am 31.2 29.3 7.6 23 13.1 SSW 7 11 4 6 1013.7 1010.4 0.0
29/01:00am 31.5 29.1 7.2 22 13.5 S 9 11 5 6 1013.6 1010.3 0.0
29/12:30am 32.1 29.7 7.0 21 13.9 S 9 13 5 7 1013.6 1010.3 0.0
29/12:00am 32.5 29.8 7.4 21 14.0 SSE 11 19 6 10 1013.6 1010.3 0.0
 
Date/Time
WST
Temp
°C
App
Temp
°C
Dew
Point
°C
Rel
Hum
%
Delta-T
°C
Wind Press
QNH
hPa
Press
MSL
hPa
Rain since
9am
mm
Dir  Spd
km/h
Gust
km/h
Spd
kts
Gust
kts
28/11:30pm 32.9 29.7 7.0 20 14.4 SSE 13 20 7 11 1013.6 1010.3 0.0
28/11:00pm 33.1 30.2 6.4 19 14.7 SSE 11 20 6 11 1013.7 1010.4 0.0
28/10:30pm 33.4 29.6 5.9 18 15.1 SE 15 20 8 11 1013.8 1010.5 0.0
28/10:00pm 33.6 29.8 6.0 18 15.2 SE 15 24 8 13 1013.8 1010.5 0.0
28/09:30pm 33.7 29.6 6.1 18 15.2 SSE 17 24 9 13 1013.7 1010.4 0.0
28/09:00pm 34.1 29.9 5.6 17 15.6 SSE 17 22 9 12 1013.4 1010.1 0.0
28/08:30pm 34.8 30.3 6.2 17 15.9 SSE 19 28 10 15 1013.2 1009.9 0.0
28/08:00pm 35.4 30.3 5.8 16 16.4 SSE 22 30 12 16 1013.0 1009.7 0.0
28/07:30pm 35.8 30.9 5.1 15 16.8 SSW 20 30 11 16 1012.5 1009.2 0.0
28/07:00pm 36.4 31.8 5.6 15 17.1 SSW 19 24 10 13 1012.1 1008.8 0.0
28/06:30pm 36.8 32.4 4.9 14 17.5 S 17 22 9 12 1011.6 1008.3 0.0
28/06:00pm 37.2 33.5 6.3 15 17.4 SSW 15 20 8 11 1011.4 1008.0 0.0
28/05:30pm 37.6 33.2 6.6 15 17.5 S 19 22 10 12 1011.0 1007.7 0.0
28/05:00pm 38.2 33.9 7.0 15 17.8 S 19 26 10 14 1010.9 1007.6 0.0
28/04:30pm 38.8 34.4 7.5 15 18.0 SSE 20 30 11 16 1010.8 1007.5 0.0
28/04:00pm 39.6 35.7 7.1 14 18.7 SSE 17 30 9 16 1010.8 1007.5 0.0
28/03:30pm 39.5 36.7 7.1 14 18.6 SSW 11 26 6 14 1010.9 1007.6 0.0
28/03:00pm 39.0 36.1 6.7 14 18.4 SE 11 26 6 14 1011.3 1007.9 0.0
28/02:30pm 39.3 35.0 6.9 14 18.5 SE 19 30 10 16 1011.6 1008.3 0.0
28/02:00pm 39.1 35.5 6.7 14 18.5 E 15 24 8 13 1012.0 1008.7 0.0
28/01:30pm 39.2 34.9 6.8 14 18.5 SSE 19 32 10 17 1012.3 1009.0 0.0
28/01:00pm 38.2 34.4 6.0 14 18.1 SE 15 24 8 13 1012.8 1009.5 0.0
28/12:30pm 37.7 34.3 7.6 16 17.3 ESE 15 30 8 16 1013.3 1010.0 0.0
28/12:00pm 37.8 34.6 8.6 17 17.0 SSE 15 22 8 12 1014.0 1010.7 0.0
28/11:30am 36.6 33.2 7.6 17 16.6 SE 15 24 8 13 1014.4 1011.1 0.0
28/11:00am 36.2 32.7 8.9 19 15.9 SSE 17 24 9 13 1014.9 1011.6 0.0
28/10:30am 35.6 32.6 9.2 20 15.4 S 15 22 8 12 1015.2 1011.9 0.0
28/10:00am 35.2 31.2 8.9 20 15.2 S 20 28 11 15 1015.4 1012.1 0.0
28/09:30am 34.0 30.6 9.3 22 14.3 S 17 24 9 13 1015.7 1012.5 0.0
28/09:00am 33.4 30.4 9.4 23 13.9 S 15 22 8 12 1015.9 1012.7 0.0
28/08:30am 32.8 31.0 9.6 24 13.4 S 9 19 5 10 1015.8 1012.6 0.0
28/08:00am 31.2 29.8 9.4 26 12.5 WNW 7 9 4 5 1015.8 1012.6 0.0
28/07:30am 29.7 28.8 10.8 31 11.0 WNW 6 7 3 4 1015.6 1012.3 0.0
28/07:00am 27.0 25.8 10.2 35 9.6 WNW 7 9 4 5 1015.4 1012.1 0.0
28/06:30am 24.9 23.6 10.0 39 8.4 WNW 7 9 4 5 1015.1 1011.8 0.0
28/06:00am 24.1 24.0 9.3 39 8.2 CALM 0 0 0 0 1014.8 1011.5 0.0
28/05:30am 25.0 24.9 9.3 37 8.7 CALM 0 0 0 0 1014.7 1011.4 0.0
28/05:00am 25.9 24.3 8.8 34 9.5 NW 7 9 4 5 1014.5 1011.2 0.0
28/04:30am 25.9 23.4 8.4 33 9.6 ESE 11 13 6 7 1014.2 1010.9 0.0
28/04:00am 27.2 25.7 8.6 31 10.3 ESE 6 7 3 4 1014.0 1010.7 0.0
28/03:30am 27.1 25.5 8.0 30 10.5 ESE 6 7 3 4 1014.0 1010.7 0.0
28/03:00am 27.1 25.5 8.0 30 10.5 ESE 6 9 3 5 1014.1 1010.8 0.0
28/02:30am 28.3 26.5 8.1 28 11.2 SSW 7 9 4 5 1014.2 1010.9 0.0
28/02:00am 28.7 26.9 7.9 27 11.5 SSW 7 9 4 5 1014.3 1011.0 0.0
28/01:30am 26.7 25.1 8.2 31 10.2 NE 6 9 3 5 1013.8 1010.5 0.0
28/01:00am 26.4 25.5 7.9 31 10.1 NE 2 7 1 4 1013.8 1010.5 0.0
28/12:30am 27.9 25.7 7.7 28 11.1 NE 9 15 5 8 1013.8 1010.5 0.0
28/12:00am 29.1 26.9 7.7 26 11.8 NNE 9 11 5 6 1013.9 1010.6 0.0
 
Date/Time
WST
Temp
°C
App
Temp
°C
Dew
Point
°C
Rel
Hum
%
Delta-T
°C
Wind Press
QNH
hPa
Press
MSL
hPa
Rain since
9am
mm
Dir  Spd
km/h
Gust
km/h
Spd
kts
Gust
kts
27/11:30pm 29.4 28.9 7.9 26 11.9 CALM 0 2 0 1 1014.0 1010.7 0.0
27/11:00pm 28.6 27.8 8.3 28 11.3 NE 2 6 1 3 1014.0 1010.7 0.0
27/10:30pm 29.0 26.7 7.6 26 11.8 NE 9 9 5 5 1014.1 1010.8 0.0
27/10:00pm 29.7 27.1 7.6 25 12.2 NE 11 13 6 7 1014.2 1010.9 0.0
27/09:30pm 30.3 27.8 8.1 25 12.4 NE 11 13 6 7 1014.3 1011.0 0.0
27/09:00pm 31.5 31.0 7.9 23 13.2 CALM 0 0 0 0 1014.3 1011.0 0.0
27/08:30pm 32.3 29.9 7.2 21 14.0 NE 9 11 5 6 1014.2 1010.9 0.0
27/08:00pm 32.9 32.4 7.7 21 14.2 CALM 0 2 0 1 1013.9 1010.6 0.0
27/07:30pm 33.4 31.6 8.1 21 14.4 S 7 11 4 6 1013.6 1010.3 0.0
27/07:00pm 35.1 34.3 6.4 17 16.0 CALM 0 0 0 0 1013.3 1010.0 0.0
27/06:30pm 36.9 34.6 5.0 14 17.5 SW 6 7 3 4 1013.0 1009.7 0.0
27/06:00pm 38.0 35.5 4.8 13 18.3 SW 7 9 4 5 1012.8 1009.5 0.0
27/05:30pm 38.1 34.9 4.9 13 18.3 W 11 17 6 9 1012.7 1009.4 0.0
27/05:00pm 38.5 35.3 5.2 13 18.5 NW 11 15 6 8 1012.7 1009.4 0.0
27/04:30pm 38.9 36.2 5.5 13 18.7 W 9 15 5 8 1012.8 1009.5 0.0
27/04:00pm 40.0 36.4 5.2 12 19.5 W 13 22 7 12 1012.7 1009.4 0.0
27/03:30pm 40.1 37.3 5.3 12 19.5 WNW 9 20 5 11 1012.8 1009.5 0.0
27/03:00pm 39.5 37.0 4.8 12 19.3 NW 7 13 4 7 1013.1 1009.8 0.0
27/02:30pm 39.6 35.6 4.9 12 19.3 WSW 15 20 8 11 1013.2 1009.9 0.0
27/02:00pm 39.5 36.6 4.8 12 19.3 ESE 9 17 5 9 1013.6 1010.3 0.0
27/01:30pm 38.8 34.9 5.4 13 18.7 NNE 15 28 8 15 1014.0 1010.7 0.0
27/01:00pm 38.6 34.3 5.3 13 18.6 NNE 17 22 9 12 1014.3 1011.0 0.0
27/12:30pm 38.0 34.2 5.9 14 18.0 NNE 15 24 8 13 1014.8 1011.5 0.0
27/12:00pm 37.5 32.9 5.5 14 17.8 NNE 19 28 10 15 1015.4 1012.1 0.0

Other formats

Comma delimited format used in spreadsheet applications
http://www.bom.gov.au/fwo/IDW60801/IDW60801.94316.axf

JavaScript Object Notation format (JSON) in row-major order
http://www.bom.gov.au/fwo/IDW60801/IDW60801.94316.json

Data quality

Most of these data are generated automatically and are frequently updated. Quality checks on data are not normally performed. It is possible for incorrect values to appear. Refer to information at About Latest Weather Observations and please check the disclaimer before using these data.